sensor_id;sensor_type;location;lat;lon;timestamp;temperature;humidity
37646;DHT22;23489;49.600;6.138;2022-07-03T00:00:42;17.10;99.90
37646;DHT22;23489;49.600;6.138;2022-07-03T00:03:08;17.00;99.90
37646;DHT22;23489;49.600;6.138;2022-07-03T00:05:34;17.00;99.90
37646;DHT22;23489;49.600;6.138;2022-07-03T00:08:00;16.90;99.90
37646;DHT22;23489;49.600;6.138;2022-07-03T00:10:26;16.90;99.90
37646;DHT22;23489;49.600;6.138;2022-07-03T00:12:51;16.80;99.90
37646;DHT22;23489;49.600;6.138;2022-07-03T00:15:17;16.80;99.90
37646;DHT22;23489;49.600;6.138;2022-07-03T00:17:42;16.80;99.90
37646;DHT22;23489;49.600;6.138;2022-07-03T00:20:08;16.80;99.90
37646;DHT22;23489;49.600;6.138;2022-07-03T00:22:37;16.70;99.90
37646;DHT22;23489;49.600;6.138;2022-07-03T00:25:07;16.70;99.90
37646;DHT22;23489;49.600;6.138;2022-07-03T00:27:34;16.70;99.90
37646;DHT22;23489;49.600;6.138;2022-07-03T00:30:01;16.70;99.90
37646;DHT22;23489;49.600;6.138;2022-07-03T00:32:28;16.70;99.90
37646;DHT22;23489;49.600;6.138;2022-07-03T00:34:55;16.60;99.90
37646;DHT22;23489;49.600;6.138;2022-07-03T00:37:22;16.50;99.90
37646;DHT22;23489;49.600;6.138;2022-07-03T00:39:49;16.50;99.90
37646;DHT22;23489;49.600;6.138;2022-07-03T00:42:16;16.40;99.90
37646;DHT22;23489;49.600;6.138;2022-07-03T00:44:56;16.40;99.90
37646;DHT22;23489;49.600;6.138;2022-07-03T00:47:23;16.40;99.90
37646;DHT22;23489;49.600;6.138;2022-07-03T00:49:54;16.30;99.90
37646;DHT22;23489;49.600;6.138;2022-07-03T00:52:22;16.20;99.90
37646;DHT22;23489;49.600;6.138;2022-07-03T00:54:53;16.20;99.90
37646;DHT22;23489;49.600;6.138;2022-07-03T00:57:20;16.10;99.90
37646;DHT22;23489;49.600;6.138;2022-07-03T00:59:46;16.00;99.90
37646;DHT22;23489;49.600;6.138;2022-07-03T01:02:38;16.00;99.90
37646;DHT22;23489;49.600;6.138;2022-07-03T01:05:37;15.90;99.90
37646;DHT22;23489;49.600;6.138;2022-07-03T01:08:35;15.90;99.90
37646;DHT22;23489;49.600;6.138;2022-07-03T01:11:27;15.80;99.90
37646;DHT22;23489;49.600;6.138;2022-07-03T01:16:31;15.70;99.90
37646;DHT22;23489;49.600;6.138;2022-07-03T01:27:47;15.60;99.90
37646;DHT22;23489;49.600;6.138;2022-07-03T01:30:14;15.50;99.90
37646;DHT22;23489;49.600;6.138;2022-07-03T01:32:44;15.50;99.90
37646;DHT22;23489;49.600;6.138;2022-07-03T01:35:31;15.50;99.90
37646;DHT22;23489;49.600;6.138;2022-07-03T01:38:05;15.50;99.90
37646;DHT22;23489;49.600;6.138;2022-07-03T01:40:36;15.50;99.90
37646;DHT22;23489;49.600;6.138;2022-07-03T01:43:04;15.50;99.90
37646;DHT22;23489;49.600;6.138;2022-07-03T01:45:32;15.60;99.90
37646;DHT22;23489;49.600;6.138;2022-07-03T01:47:58;15.60;99.90
37646;DHT22;23489;49.600;6.138;2022-07-03T01:50:25;15.70;99.90
37646;DHT22;23489;49.600;6.138;2022-07-03T01:52:54;15.70;99.90
37646;DHT22;23489;49.600;6.138;2022-07-03T01:55:23;15.60;99.90
37646;DHT22;23489;49.600;6.138;2022-07-03T01:57:50;15.60;99.90
37646;DHT22;23489;49.600;6.138;2022-07-03T02:00:18;15.50;99.90
37646;DHT22;23489;49.600;6.138;2022-07-03T02:02:57;15.50;99.90
37646;DHT22;23489;49.600;6.138;2022-07-03T02:05:33;15.40;99.90
37646;DHT22;23489;49.600;6.138;2022-07-03T02:08:26;15.30;99.90
37646;DHT22;23489;49.600;6.138;2022-07-03T02:11:07;15.30;99.90
37646;DHT22;23489;49.600;6.138;2022-07-03T02:13:38;15.30;99.90
37646;DHT22;23489;49.600;6.138;2022-07-03T02:16:08;15.30;99.90
37646;DHT22;23489;49.600;6.138;2022-07-03T02:18:36;15.20;99.90
37646;DHT22;23489;49.600;6.138;2022-07-03T02:21:13;15.20;99.90
37646;DHT22;23489;49.600;6.138;2022-07-03T02:26:16;15.10;99.90
37646;DHT22;23489;49.600;6.138;2022-07-03T02:29:04;15.10;99.90
37646;DHT22;23489;49.600;6.138;2022-07-03T02:31:44;15.00;99.90
37646;DHT22;23489;49.600;6.138;2022-07-03T02:34:16;15.00;99.90
37646;DHT22;23489;49.600;6.138;2022-07-03T02:36:46;14.90;99.90
37646;DHT22;23489;49.600;6.138;2022-07-03T02:39:22;14.90;99.90
37646;DHT22;23489;49.600;6.138;2022-07-03T02:41:58;14.90;99.90
37646;DHT22;23489;49.600;6.138;2022-07-03T02:44:46;14.80;99.90
37646;DHT22;23489;49.600;6.138;2022-07-03T02:47:25;14.70;99.90
37646;DHT22;23489;49.600;6.138;2022-07-03T02:50:02;14.60;99.90
37646;DHT22;23489;49.600;6.138;2022-07-03T02:58:44;14.50;99.90
37646;DHT22;23489;49.600;6.138;2022-07-03T03:04:28;14.40;99.90
37646;DHT22;23489;49.600;6.138;2022-07-03T03:07:16;14.40;99.90
37646;DHT22;23489;49.600;6.138;2022-07-03T03:09:43;14.40;99.90
37646;DHT22;23489;49.600;6.138;2022-07-03T03:12:10;14.40;99.90
37646;DHT22;23489;49.600;6.138;2022-07-03T03:14:40;14.40;99.90
37646;DHT22;23489;49.600;6.138;2022-07-03T03:17:08;14.40;99.90
37646;DHT22;23489;49.600;6.138;2022-07-03T03:19:40;14.40;99.90
37646;DHT22;23489;49.600;6.138;2022-07-03T03:22:21;14.30;99.90
37646;DHT22;23489;49.600;6.138;2022-07-03T03:24:51;14.30;99.90
37646;DHT22;23489;49.600;6.138;2022-07-03T03:27:17;14.30;99.90
37646;DHT22;23489;49.600;6.138;2022-07-03T03:29:44;14.30;99.90
37646;DHT22;23489;49.600;6.138;2022-07-03T03:32:11;14.20;99.90
37646;DHT22;23489;49.600;6.138;2022-07-03T03:34:38;14.20;99.90
37646;DHT22;23489;49.600;6.138;2022-07-03T03:37:05;14.20;99.90
37646;DHT22;23489;49.600;6.138;2022-07-03T03:39:31;14.10;99.90
37646;DHT22;23489;49.600;6.138;2022-07-03T03:41:57;14.10;99.90
37646;DHT22;23489;49.600;6.138;2022-07-03T03:44:24;14.10;99.90
37646;DHT22;23489;49.600;6.138;2022-07-03T03:46:50;14.10;99.90
37646;DHT22;23489;49.600;6.138;2022-07-03T03:49:16;14.10;99.90
37646;DHT22;23489;49.600;6.138;2022-07-03T03:51:42;14.10;99.90
37646;DHT22;23489;49.600;6.138;2022-07-03T03:54:07;14.10;99.90
37646;DHT22;23489;49.600;6.138;2022-07-03T03:56:33;14.10;99.90
37646;DHT22;23489;49.600;6.138;2022-07-03T03:58:59;14.10;99.90
37646;DHT22;23489;49.600;6.138;2022-07-03T04:01:24;14.10;99.90
37646;DHT22;23489;49.600;6.138;2022-07-03T04:03:50;14.20;99.90
37646;DHT22;23489;49.600;6.138;2022-07-03T04:06:19;14.20;99.90
37646;DHT22;23489;49.600;6.138;2022-07-03T04:08:44;14.20;99.90
37646;DHT22;23489;49.600;6.138;2022-07-03T04:11:10;14.30;99.90
37646;DHT22;23489;49.600;6.138;2022-07-03T04:13:36;14.30;99.90
37646;DHT22;23489;49.600;6.138;2022-07-03T04:16:01;14.40;99.90
37646;DHT22;23489;49.600;6.138;2022-07-03T04:18:27;14.50;99.90
37646;DHT22;23489;49.600;6.138;2022-07-03T04:20:53;14.60;99.90
37646;DHT22;23489;49.600;6.138;2022-07-03T04:23:19;14.50;99.90
37646;DHT22;23489;49.600;6.138;2022-07-03T04:25:45;14.50;99.90
37646;DHT22;23489;49.600;6.138;2022-07-03T04:28:11;14.40;99.90
37646;DHT22;23489;49.600;6.138;2022-07-03T04:30:37;14.40;99.90
37646;DHT22;23489;49.600;6.138;2022-07-03T04:33:02;14.40;99.90
37646;DHT22;23489;49.600;6.138;2022-07-03T04:35:28;14.30;99.90
37646;DHT22;23489;49.600;6.138;2022-07-03T04:37:54;14.30;99.90
37646;DHT22;23489;49.600;6.138;2022-07-03T04:40:20;14.40;99.90
37646;DHT22;23489;49.600;6.138;2022-07-03T04:42:45;14.40;99.90
37646;DHT22;23489;49.600;6.138;2022-07-03T04:45:11;14.40;99.90
37646;DHT22;23489;49.600;6.138;2022-07-03T04:47:37;14.40;99.90
37646;DHT22;23489;49.600;6.138;2022-07-03T04:50:03;14.50;99.90
37646;DHT22;23489;49.600;6.138;2022-07-03T04:52:28;14.60;99.90
37646;DHT22;23489;49.600;6.138;2022-07-03T04:54:54;14.60;99.90
37646;DHT22;23489;49.600;6.138;2022-07-03T04:57:20;14.80;99.90
37646;DHT22;23489;49.600;6.138;2022-07-03T04:59:45;14.90;99.90
37646;DHT22;23489;49.600;6.138;2022-07-03T05:02:12;15.20;99.90
37646;DHT22;23489;49.600;6.138;2022-07-03T05:04:38;16.00;99.90
37646;DHT22;23489;49.600;6.138;2022-07-03T05:07:03;16.60;99.90
37646;DHT22;23489;49.600;6.138;2022-07-03T05:09:29;17.10;99.90
37646;DHT22;23489;49.600;6.138;2022-07-03T05:11:55;17.00;99.90
37646;DHT22;23489;49.600;6.138;2022-07-03T05:14:20;17.00;99.90
37646;DHT22;23489;49.600;6.138;2022-07-03T05:16:46;17.10;99.90
37646;DHT22;23489;49.600;6.138;2022-07-03T05:19:12;17.20;99.90
37646;DHT22;23489;49.600;6.138;2022-07-03T05:21:37;17.20;99.90
37646;DHT22;23489;49.600;6.138;2022-07-03T05:24:03;17.10;99.90
37646;DHT22;23489;49.600;6.138;2022-07-03T05:26:29;17.20;99.90
37646;DHT22;23489;49.600;6.138;2022-07-03T05:28:55;17.20;99.90
37646;DHT22;23489;49.600;6.138;2022-07-03T05:31:20;17.20;99.90
37646;DHT22;23489;49.600;6.138;2022-07-03T05:33:46;17.10;99.90
37646;DHT22;23489;49.600;6.138;2022-07-03T05:36:12;17.20;99.90
37646;DHT22;23489;49.600;6.138;2022-07-03T05:38:37;17.30;99.90
37646;DHT22;23489;49.600;6.138;2022-07-03T05:41:22;17.40;99.90
37646;DHT22;23489;49.600;6.138;2022-07-03T05:43:47;17.60;99.90
37646;DHT22;23489;49.600;6.138;2022-07-03T05:46:13;17.70;99.90
37646;DHT22;23489;49.600;6.138;2022-07-03T05:48:39;17.80;99.90
37646;DHT22;23489;49.600;6.138;2022-07-03T05:51:05;18.00;99.90
37646;DHT22;23489;49.600;6.138;2022-07-03T05:53:30;18.20;99.90
37646;DHT22;23489;49.600;6.138;2022-07-03T05:55:57;18.40;99.90
37646;DHT22;23489;49.600;6.138;2022-07-03T05:58:23;18.60;99.90
37646;DHT22;23489;49.600;6.138;2022-07-03T06:00:48;18.70;99.90
37646;DHT22;23489;49.600;6.138;2022-07-03T06:03:14;18.90;99.90
37646;DHT22;23489;49.600;6.138;2022-07-03T06:05:39;18.90;99.90
37646;DHT22;23489;49.600;6.138;2022-07-03T06:08:06;19.00;99.90
37646;DHT22;23489;49.600;6.138;2022-07-03T06:10:32;19.20;99.90
37646;DHT22;23489;49.600;6.138;2022-07-03T06:12:58;19.70;99.90
37646;DHT22;23489;49.600;6.138;2022-07-03T06:15:24;20.40;99.90
37646;DHT22;23489;49.600;6.138;2022-07-03T06:17:50;21.30;99.90
37646;DHT22;23489;49.600;6.138;2022-07-03T06:20:16;22.20;99.90
37646;DHT22;23489;49.600;6.138;2022-07-03T06:22:42;23.80;99.90
37646;DHT22;23489;49.600;6.138;2022-07-03T06:25:08;25.40;97.30
37646;DHT22;23489;49.600;6.138;2022-07-03T06:27:34;27.00;93.40
37646;DHT22;23489;49.600;6.138;2022-07-03T06:30:00;28.20;90.30
37646;DHT22;23489;49.600;6.138;2022-07-03T06:32:26;29.30;84.40
37646;DHT22;23489;49.600;6.138;2022-07-03T06:34:52;30.30;79.00
37646;DHT22;23489;49.600;6.138;2022-07-03T06:37:18;30.60;75.30
37646;DHT22;23489;49.600;6.138;2022-07-03T06:39:44;29.50;75.00
37646;DHT22;23489;49.600;6.138;2022-07-03T06:42:09;28.20;78.00
37646;DHT22;23489;49.600;6.138;2022-07-03T06:44:35;29.60;75.60
37646;DHT22;23489;49.600;6.138;2022-07-03T06:47:01;30.50;72.10
37646;DHT22;23489;49.600;6.138;2022-07-03T06:49:32;30.70;70.30
37646;DHT22;23489;49.600;6.138;2022-07-03T06:51:58;31.40;68.20
37646;DHT22;23489;49.600;6.138;2022-07-03T06:54:23;32.70;65.80
37646;DHT22;23489;49.600;6.138;2022-07-03T06:56:49;32.90;63.50
37646;DHT22;23489;49.600;6.138;2022-07-03T06:59:15;31.80;64.80
37646;DHT22;23489;49.600;6.138;2022-07-03T07:01:40;31.10;65.50
37646;DHT22;23489;49.600;6.138;2022-07-03T07:04:06;31.10;65.30
37646;DHT22;23489;49.600;6.138;2022-07-03T07:06:32;31.60;64.00
37646;DHT22;23489;49.600;6.138;2022-07-03T07:08:58;32.30;63.20
37646;DHT22;23489;49.600;6.138;2022-07-03T07:11:23;32.20;62.30
37646;DHT22;23489;49.600;6.138;2022-07-03T07:13:49;32.50;60.90
37646;DHT22;23489;49.600;6.138;2022-07-03T07:16:15;32.70;60.90
37646;DHT22;23489;49.600;6.138;2022-07-03T07:18:42;32.60;60.80
37646;DHT22;23489;49.600;6.138;2022-07-03T07:21:09;32.00;61.30
37646;DHT22;23489;49.600;6.138;2022-07-03T07:23:35;32.00;61.30
37646;DHT22;23489;49.600;6.138;2022-07-03T07:26:01;32.60;60.30
37646;DHT22;23489;49.600;6.138;2022-07-03T07:28:26;33.10;59.80
37646;DHT22;23489;49.600;6.138;2022-07-03T07:30:52;34.30;58.10
37646;DHT22;23489;49.600;6.138;2022-07-03T07:33:21;33.50;59.00
37646;DHT22;23489;49.600;6.138;2022-07-03T07:35:47;33.50;58.30
37646;DHT22;23489;49.600;6.138;2022-07-03T07:38:13;33.70;57.60
37646;DHT22;23489;49.600;6.138;2022-07-03T07:40:38;33.90;57.70
37646;DHT22;23489;49.600;6.138;2022-07-03T07:43:04;34.10;57.20
37646;DHT22;23489;49.600;6.138;2022-07-03T07:45:30;33.90;57.30
37646;DHT22;23489;49.600;6.138;2022-07-03T07:47:55;33.60;57.90
37646;DHT22;23489;49.600;6.138;2022-07-03T07:50:21;34.10;56.60
37646;DHT22;23489;49.600;6.138;2022-07-03T07:52:47;34.30;56.20
37646;DHT22;23489;49.600;6.138;2022-07-03T07:55:12;34.60;55.70
37646;DHT22;23489;49.600;6.138;2022-07-03T07:57:39;34.40;54.40
37646;DHT22;23489;49.600;6.138;2022-07-03T08:00:16;34.70;54.60
37646;DHT22;23489;49.600;6.138;2022-07-03T08:02:42;35.80;51.80
37646;DHT22;23489;49.600;6.138;2022-07-03T08:05:27;36.40;51.10
37646;DHT22;23489;49.600;6.138;2022-07-03T08:08:12;36.90;49.80
37646;DHT22;23489;49.600;6.138;2022-07-03T08:10:49;37.30;48.70
37646;DHT22;23489;49.600;6.138;2022-07-03T08:13:17;37.40;48.40
37646;DHT22;23489;49.600;6.138;2022-07-03T08:15:43;38.00;46.10
37646;DHT22;23489;49.600;6.138;2022-07-03T08:18:10;38.60;44.50
37646;DHT22;23489;49.600;6.138;2022-07-03T08:20:37;37.50;45.40
37646;DHT22;23489;49.600;6.138;2022-07-03T08:23:03;35.70;47.80
37646;DHT22;23489;49.600;6.138;2022-07-03T08:25:29;35.90;47.50
37646;DHT22;23489;49.600;6.138;2022-07-03T08:27:56;36.90;46.50
37646;DHT22;23489;49.600;6.138;2022-07-03T08:30:21;37.50;44.50
37646;DHT22;23489;49.600;6.138;2022-07-03T08:32:48;37.60;44.40
37646;DHT22;23489;49.600;6.138;2022-07-03T08:35:14;38.00;42.90
37646;DHT22;23489;49.600;6.138;2022-07-03T08:37:39;38.80;42.60
37646;DHT22;23489;49.600;6.138;2022-07-03T08:40:09;36.90;42.90
37646;DHT22;23489;49.600;6.138;2022-07-03T08:42:36;36.80;43.00
37646;DHT22;23489;49.600;6.138;2022-07-03T08:45:02;37.10;42.10
37646;DHT22;23489;49.600;6.138;2022-07-03T08:47:28;37.80;41.10
37646;DHT22;23489;49.600;6.138;2022-07-03T08:49:54;37.90;40.80
37646;DHT22;23489;49.600;6.138;2022-07-03T08:52:21;38.40;40.00
37646;DHT22;23489;49.600;6.138;2022-07-03T08:54:47;39.30;38.80
37646;DHT22;23489;49.600;6.138;2022-07-03T08:57:13;39.20;38.40
37646;DHT22;23489;49.600;6.138;2022-07-03T08:59:39;39.40;37.90
37646;DHT22;23489;49.600;6.138;2022-07-03T09:02:05;39.70;37.60
37646;DHT22;23489;49.600;6.138;2022-07-03T09:04:31;39.60;36.60
37646;DHT22;23489;49.600;6.138;2022-07-03T09:06:58;39.70;36.40
37646;DHT22;23489;49.600;6.138;2022-07-03T09:09:24;40.40;36.20
37646;DHT22;23489;49.600;6.138;2022-07-03T09:11:51;39.60;36.60
37646;DHT22;23489;49.600;6.138;2022-07-03T09:14:17;39.80;36.70
37646;DHT22;23489;49.600;6.138;2022-07-03T09:16:42;40.00;36.10
37646;DHT22;23489;49.600;6.138;2022-07-03T09:19:08;39.00;36.50
37646;DHT22;23489;49.600;6.138;2022-07-03T09:21:40;38.10;36.40
37646;DHT22;23489;49.600;6.138;2022-07-03T09:24:07;37.10;37.50
37646;DHT22;23489;49.600;6.138;2022-07-03T09:26:34;36.40;37.70
37646;DHT22;23489;49.600;6.138;2022-07-03T09:29:00;35.10;38.80
37646;DHT22;23489;49.600;6.138;2022-07-03T09:31:28;32.50;42.20
37646;DHT22;23489;49.600;6.138;2022-07-03T09:34:05;30.20;45.10
37646;DHT22;23489;49.600;6.138;2022-07-03T09:39:24;32.10;44.20
37646;DHT22;23489;49.600;6.138;2022-07-03T09:42:02;33.10;41.90
37646;DHT22;23489;49.600;6.138;2022-07-03T09:44:38;32.70;41.80
37646;DHT22;23489;49.600;6.138;2022-07-03T09:47:10;32.90;41.70
37646;DHT22;23489;49.600;6.138;2022-07-03T09:49:58;33.20;41.40
37646;DHT22;23489;49.600;6.138;2022-07-03T09:52:40;33.70;41.40
37646;DHT22;23489;49.600;6.138;2022-07-03T09:57:31;36.50;38.00
37646;DHT22;23489;49.600;6.138;2022-07-03T10:00:19;36.40;37.80
37646;DHT22;23489;49.600;6.138;2022-07-03T10:03:00;36.60;37.50
37646;DHT22;23489;49.600;6.138;2022-07-03T10:05:32;37.30;36.30
37646;DHT22;23489;49.600;6.138;2022-07-03T10:08:08;37.40;36.20
37646;DHT22;23489;49.600;6.138;2022-07-03T10:10:44;37.90;36.50
37646;DHT22;23489;49.600;6.138;2022-07-03T10:13:11;37.50;36.70
37646;DHT22;23489;49.600;6.138;2022-07-03T10:15:38;36.80;37.20
37646;DHT22;23489;49.600;6.138;2022-07-03T10:18:08;34.80;38.60
37646;DHT22;23489;49.600;6.138;2022-07-03T10:20:40;35.50;37.50
37646;DHT22;23489;49.600;6.138;2022-07-03T10:23:06;34.30;39.20
37646;DHT22;23489;49.600;6.138;2022-07-03T10:25:33;35.10;39.20
37646;DHT22;23489;49.600;6.138;2022-07-03T10:28:00;36.10;38.60
37646;DHT22;23489;49.600;6.138;2022-07-03T10:30:26;36.80;37.40
37646;DHT22;23489;49.600;6.138;2022-07-03T10:32:54;36.60;37.80
37646;DHT22;23489;49.600;6.138;2022-07-03T10:35:28;36.90;36.90
37646;DHT22;23489;49.600;6.138;2022-07-03T10:38:36;35.90;36.80
37646;DHT22;23489;49.600;6.138;2022-07-03T10:44:00;33.10;40.20
37646;DHT22;23489;49.600;6.138;2022-07-03T10:46:45;33.70;40.10
37646;DHT22;23489;49.600;6.138;2022-07-03T10:49:11;35.00;39.10
37646;DHT22;23489;49.600;6.138;2022-07-03T10:51:58;35.80;37.10
37646;DHT22;23489;49.600;6.138;2022-07-03T10:54:29;36.00;37.30
37646;DHT22;23489;49.600;6.138;2022-07-03T10:57:16;36.60;36.90
37646;DHT22;23489;49.600;6.138;2022-07-03T11:02:35;37.10;33.90
37646;DHT22;23489;49.600;6.138;2022-07-03T11:07:27;35.00;38.60
37646;DHT22;23489;49.600;6.138;2022-07-03T11:20:33;30.60;44.70
37646;DHT22;23489;49.600;6.138;2022-07-03T11:22:59;29.70;46.20
37646;DHT22;23489;49.600;6.138;2022-07-03T11:25:38;29.20;47.40
37646;DHT22;23489;49.600;6.138;2022-07-03T11:28:05;28.70;47.60
37646;DHT22;23489;49.600;6.138;2022-07-03T11:30:31;28.10;48.60
37646;DHT22;23489;49.600;6.138;2022-07-03T11:32:58;28.10;49.60
37646;DHT22;23489;49.600;6.138;2022-07-03T11:35:48;28.30;49.50
37646;DHT22;23489;49.600;6.138;2022-07-03T11:38:16;28.40;49.20
37646;DHT22;23489;49.600;6.138;2022-07-03T11:40:43;28.60;49.10
37646;DHT22;23489;49.600;6.138;2022-07-03T11:43:11;28.00;49.50
37646;DHT22;23489;49.600;6.138;2022-07-03T11:45:39;28.10;49.90
37646;DHT22;23489;49.600;6.138;2022-07-03T11:48:12;28.30;49.50
37646;DHT22;23489;49.600;6.138;2022-07-03T11:50:42;28.70;49.10
37646;DHT22;23489;49.600;6.138;2022-07-03T11:53:28;29.00;48.10
37646;DHT22;23489;49.600;6.138;2022-07-03T11:55:55;29.20;48.30
37646;DHT22;23489;49.600;6.138;2022-07-03T11:58:22;29.40;48.20
37646;DHT22;23489;49.600;6.138;2022-07-03T12:00:48;29.50;47.60
37646;DHT22;23489;49.600;6.138;2022-07-03T12:03:21;29.30;47.70
37646;DHT22;23489;49.600;6.138;2022-07-03T12:05:56;28.90;48.40
37646;DHT22;23489;49.600;6.138;2022-07-03T12:08:32;28.70;48.50
37646;DHT22;23489;49.600;6.138;2022-07-03T12:11:04;28.50;48.40
37646;DHT22;23489;49.600;6.138;2022-07-03T12:13:31;28.60;48.00
37646;DHT22;23489;49.600;6.138;2022-07-03T12:16:11;28.60;48.20
37646;DHT22;23489;49.600;6.138;2022-07-03T12:18:46;28.20;49.90
37646;DHT22;23489;49.600;6.138;2022-07-03T12:21:13;28.30;50.50
37646;DHT22;23489;49.600;6.138;2022-07-03T12:23:53;28.50;49.20
37646;DHT22;23489;49.600;6.138;2022-07-03T12:26:35;28.30;50.00
37646;DHT22;23489;49.600;6.138;2022-07-03T12:29:13;28.60;49.40
37646;DHT22;23489;49.600;6.138;2022-07-03T12:31:40;28.60;49.50
37646;DHT22;23489;49.600;6.138;2022-07-03T12:34:06;28.60;49.80
37646;DHT22;23489;49.600;6.138;2022-07-03T12:36:32;28.30;50.60
37646;DHT22;23489;49.600;6.138;2022-07-03T12:38:58;28.30;50.20
37646;DHT22;23489;49.600;6.138;2022-07-03T12:41:26;28.20;50.60
37646;DHT22;23489;49.600;6.138;2022-07-03T12:43:52;28.10;51.10
37646;DHT22;23489;49.600;6.138;2022-07-03T12:48:59;27.90;52.00
37646;DHT22;23489;49.600;6.138;2022-07-03T12:54:32;28.30;51.30
37646;DHT22;23489;49.600;6.138;2022-07-03T12:57:06;28.30;51.50
37646;DHT22;23489;49.600;6.138;2022-07-03T13:00:11;28.30;51.30
37646;DHT22;23489;49.600;6.138;2022-07-03T13:02:39;28.30;51.10
37646;DHT22;23489;49.600;6.138;2022-07-03T13:07:41;27.90;51.80
37646;DHT22;23489;49.600;6.138;2022-07-03T13:10:07;28.30;51.70
37646;DHT22;23489;49.600;6.138;2022-07-03T13:12:33;28.10;51.70
37646;DHT22;23489;49.600;6.138;2022-07-03T13:15:02;28.10;52.70
37646;DHT22;23489;49.600;6.138;2022-07-03T13:20:26;28.20;52.60
37646;DHT22;23489;49.600;6.138;2022-07-03T13:22:55;28.30;52.60
37646;DHT22;23489;49.600;6.138;2022-07-03T13:25:21;28.30;52.40
37646;DHT22;23489;49.600;6.138;2022-07-03T13:27:47;28.40;52.40
37646;DHT22;23489;49.600;6.138;2022-07-03T13:30:17;28.60;52.10
37646;DHT22;23489;49.600;6.138;2022-07-03T13:32:43;28.80;51.20
37646;DHT22;23489;49.600;6.138;2022-07-03T13:35:10;28.80;51.10
37646;DHT22;23489;49.600;6.138;2022-07-03T13:37:35;29.00;51.30
37646;DHT22;23489;49.600;6.138;2022-07-03T13:40:02;29.00;51.40
37646;DHT22;23489;49.600;6.138;2022-07-03T13:42:28;29.10;51.30
37646;DHT22;23489;49.600;6.138;2022-07-03T13:44:54;29.00;52.00
37646;DHT22;23489;49.600;6.138;2022-07-03T13:47:20;28.80;52.00
37646;DHT22;23489;49.600;6.138;2022-07-03T13:49:45;28.20;52.60
37646;DHT22;23489;49.600;6.138;2022-07-03T13:52:11;27.80;53.60
37646;DHT22;23489;49.600;6.138;2022-07-03T13:54:37;27.80;52.60
37646;DHT22;23489;49.600;6.138;2022-07-03T13:57:03;28.00;52.80
37646;DHT22;23489;49.600;6.138;2022-07-03T13:59:28;28.20;53.00
37646;DHT22;23489;49.600;6.138;2022-07-03T14:01:57;28.30;53.70
37646;DHT22;23489;49.600;6.138;2022-07-03T14:04:22;28.30;53.80
37646;DHT22;23489;49.600;6.138;2022-07-03T14:06:48;28.10;54.20
37646;DHT22;23489;49.600;6.138;2022-07-03T14:09:14;28.10;54.30
37646;DHT22;23489;49.600;6.138;2022-07-03T14:11:39;28.10;54.60
37646;DHT22;23489;49.600;6.138;2022-07-03T14:14:05;27.70;55.20
37646;DHT22;23489;49.600;6.138;2022-07-03T14:16:31;27.30;56.20
37646;DHT22;23489;49.600;6.138;2022-07-03T14:18:57;27.00;57.20
37646;DHT22;23489;49.600;6.138;2022-07-03T14:21:23;27.20;57.40
37646;DHT22;23489;49.600;6.138;2022-07-03T14:23:49;27.70;55.60
37646;DHT22;23489;49.600;6.138;2022-07-03T14:26:15;27.30;55.70
37646;DHT22;23489;49.600;6.138;2022-07-03T14:28:40;27.50;56.40
37646;DHT22;23489;49.600;6.138;2022-07-03T14:31:25;27.00;57.50
37646;DHT22;23489;49.600;6.138;2022-07-03T14:33:52;26.80;58.40
37646;DHT22;23489;49.600;6.138;2022-07-03T14:36:18;26.90;58.60
37646;DHT22;23489;49.600;6.138;2022-07-03T14:38:44;26.70;58.50
37646;DHT22;23489;49.600;6.138;2022-07-03T14:41:10;26.60;59.30
37646;DHT22;23489;49.600;6.138;2022-07-03T14:43:36;26.50;59.70
37646;DHT22;23489;49.600;6.138;2022-07-03T14:46:02;26.60;59.90
37646;DHT22;23489;49.600;6.138;2022-07-03T14:48:27;26.90;59.10
37646;DHT22;23489;49.600;6.138;2022-07-03T14:50:54;26.50;59.70
37646;DHT22;23489;49.600;6.138;2022-07-03T14:53:20;26.40;60.60
37646;DHT22;23489;49.600;6.138;2022-07-03T14:55:46;26.00;61.60
37646;DHT22;23489;49.600;6.138;2022-07-03T14:58:17;26.20;61.70
37646;DHT22;23489;49.600;6.138;2022-07-03T15:00:49;26.00;62.00
37646;DHT22;23489;49.600;6.138;2022-07-03T15:03:19;26.20;62.00
37646;DHT22;23489;49.600;6.138;2022-07-03T15:05:45;26.50;61.30
37646;DHT22;23489;49.600;6.138;2022-07-03T15:08:15;26.60;60.90
37646;DHT22;23489;49.600;6.138;2022-07-03T15:10:42;26.50;60.90
37646;DHT22;23489;49.600;6.138;2022-07-03T15:13:08;26.20;61.50
37646;DHT22;23489;49.600;6.138;2022-07-03T15:15:34;26.20;62.00
37646;DHT22;23489;49.600;6.138;2022-07-03T15:18:01;26.30;61.70
37646;DHT22;23489;49.600;6.138;2022-07-03T15:20:31;26.30;61.90
37646;DHT22;23489;49.600;6.138;2022-07-03T15:22:56;26.60;61.80
37646;DHT22;23489;49.600;6.138;2022-07-03T15:25:22;26.80;61.30
37646;DHT22;23489;49.600;6.138;2022-07-03T15:27:52;26.60;60.60
37646;DHT22;23489;49.600;6.138;2022-07-03T15:30:18;26.30;61.40
37646;DHT22;23489;49.600;6.138;2022-07-03T15:32:45;26.30;61.60
37646;DHT22;23489;49.600;6.138;2022-07-03T15:35:11;26.20;61.80
37646;DHT22;23489;49.600;6.138;2022-07-03T15:40:06;26.20;61.70
37646;DHT22;23489;49.600;6.138;2022-07-03T15:48:10;26.10;62.10
37646;DHT22;23489;49.600;6.138;2022-07-03T15:51:18;26.10;61.60
37646;DHT22;23489;49.600;6.138;2022-07-03T15:53:49;26.20;61.40
37646;DHT22;23489;49.600;6.138;2022-07-03T15:56:17;25.90;62.30
37646;DHT22;23489;49.600;6.138;2022-07-03T15:58:49;25.90;62.30
37646;DHT22;23489;49.600;6.138;2022-07-03T16:01:17;25.70;63.00
37646;DHT22;23489;49.600;6.138;2022-07-03T16:04:03;25.70;63.10
37646;DHT22;23489;49.600;6.138;2022-07-03T16:06:32;25.40;64.20
37646;DHT22;23489;49.600;6.138;2022-07-03T16:08:59;25.40;64.80
37646;DHT22;23489;49.600;6.138;2022-07-03T16:11:25;25.00;65.60
37646;DHT22;23489;49.600;6.138;2022-07-03T16:13:51;25.00;65.80
37646;DHT22;23489;49.600;6.138;2022-07-03T16:16:20;24.90;66.00
37646;DHT22;23489;49.600;6.138;2022-07-03T16:18:46;25.10;65.60
37646;DHT22;23489;49.600;6.138;2022-07-03T16:21:13;25.00;65.80
37646;DHT22;23489;49.600;6.138;2022-07-03T16:23:39;25.00;65.70
37646;DHT22;23489;49.600;6.138;2022-07-03T16:26:05;25.10;65.50
37646;DHT22;23489;49.600;6.138;2022-07-03T16:28:31;25.00;65.50
37646;DHT22;23489;49.600;6.138;2022-07-03T16:30:57;25.00;65.40
37646;DHT22;23489;49.600;6.138;2022-07-03T16:33:26;24.80;65.70
37646;DHT22;23489;49.600;6.138;2022-07-03T16:35:53;24.80;65.40
37646;DHT22;23489;49.600;6.138;2022-07-03T16:38:25;24.60;65.00
37646;DHT22;23489;49.600;6.138;2022-07-03T16:40:57;24.60;65.10
37646;DHT22;23489;49.600;6.138;2022-07-03T16:43:22;24.30;65.50
37646;DHT22;23489;49.600;6.138;2022-07-03T16:45:48;24.20;65.70
37646;DHT22;23489;49.600;6.138;2022-07-03T16:48:15;24.40;65.90